N236PW KOIC-KART
Flight info
| Callsign | N236PW |
|---|---|
| Flight time | 0h 41m |
| Altitude | 8000 |
| Route | SYR |
| Aircraft | BE36/L-BDFGLORY/S |
Departure
| Time | 2026-04-25 06:39 |
|---|---|
| Airport | Lt Warren Eaton Airport (KOIC) |
Arrival
| Time | 2026-04-25 07:21 |
|---|---|
| Airport | Watertown International Airport (KART) |
| Time | Latitude | Longitude | Altitude | Speed | Heading |
|---|---|---|---|---|---|
| 2026-04-25 06:28 | 42.56591 | -75.52633 | 1020 ft | 0 kts | 272° |
| 2026-04-25 06:35 | 42.56582 | -75.52637 | 1021 ft | 6 kts | 141° |
| 2026-04-25 06:35 | 42.56613 | -75.52594 | 1019 ft | 8 kts | 2° |
| 2026-04-25 06:35 | 42.56668 | -75.52590 | 1019 ft | 3 kts | 39° |
| 2026-04-25 06:35 | 42.56630 | -75.52565 | 1018 ft | 11 kts | 178° |
| 2026-04-25 06:36 | 42.56573 | -75.52565 | 1017 ft | 12 kts | 184° |
| 2026-04-25 06:36 | 42.56501 | -75.52570 | 1018 ft | 11 kts | 181° |
| 2026-04-25 06:36 | 42.56406 | -75.52571 | 1018 ft | 16 kts | 179° |
| 2026-04-25 06:36 | 42.56281 | -75.52582 | 1015 ft | 20 kts | 184° |
| 2026-04-25 06:37 | 42.56159 | -75.52590 | 1016 ft | 13 kts | 182° |
| 2026-04-25 06:37 | 42.56056 | -75.52597 | 1015 ft | 17 kts | 182° |
| 2026-04-25 06:37 | 42.56018 | -75.52523 | 1014 ft | 11 kts | 91° |
| 2026-04-25 06:37 | 42.56031 | -75.52449 | 1014 ft | 9 kts | 18° |
| 2026-04-25 06:38 | 42.56040 | -75.52447 | 1014 ft | 0 kts | 2° |
| 2026-04-25 06:38 | 42.56059 | -75.52447 | 1014 ft | 11 kts | 1° |
| 2026-04-25 06:39 | 42.56385 | -75.52428 | 1017 ft | 77 kts | 4° |
| 2026-04-25 06:39 | 42.56995 | -75.52453 | 1177 ft | 94 kts | 355° |
| 2026-04-25 06:39 | 42.57685 | -75.52500 | 1395 ft | 101 kts | 0° |
| 2026-04-25 06:39 | 42.58395 | -75.52496 | 1711 ft | 103 kts | 353° |
| 2026-04-25 06:40 | 42.59061 | -75.52898 | 2018 ft | 113 kts | 317° |
| 2026-04-25 06:40 | 42.59510 | -75.53859 | 2275 ft | 127 kts | 303° |
| 2026-04-25 06:40 | 42.59992 | -75.54868 | 2641 ft | 130 kts | 303° |
| 2026-04-25 06:40 | 42.60515 | -75.55923 | 2937 ft | 135 kts | 305° |
| 2026-04-25 06:41 | 42.61077 | -75.56951 | 3213 ft | 134 kts | 304° |
| 2026-04-25 06:41 | 42.61657 | -75.57940 | 3494 ft | 137 kts | 314° |
| 2026-04-25 06:41 | 42.62364 | -75.58851 | 3679 ft | 144 kts | 315° |
| 2026-04-25 06:41 | 42.63141 | -75.59744 | 3853 ft | 148 kts | 318° |
| 2026-04-25 06:42 | 42.63943 | -75.60657 | 4032 ft | 152 kts | 318° |
| 2026-04-25 06:42 | 42.64760 | -75.61589 | 4216 ft | 155 kts | 317° |
| 2026-04-25 06:42 | 42.65594 | -75.62538 | 4402 ft | 157 kts | 317° |
| 2026-04-25 06:42 | 42.66431 | -75.63489 | 4588 ft | 157 kts | 317° |
| 2026-04-25 06:43 | 42.67246 | -75.64414 | 4825 ft | 151 kts | 317° |
| 2026-04-25 06:43 | 42.68047 | -75.65323 | 5077 ft | 146 kts | 316° |
| 2026-04-25 06:43 | 42.68817 | -75.66198 | 5325 ft | 142 kts | 315° |
| 2026-04-25 06:43 | 42.69564 | -75.67049 | 5577 ft | 137 kts | 317° |
| 2026-04-25 06:44 | 42.70283 | -75.67868 | 5845 ft | 132 kts | 317° |
| 2026-04-25 06:44 | 42.70966 | -75.68642 | 6095 ft | 126 kts | 319° |
| 2026-04-25 06:44 | 42.71623 | -75.69392 | 6351 ft | 121 kts | 319° |
| 2026-04-25 06:44 | 42.72257 | -75.70114 | 6590 ft | 117 kts | 319° |
| 2026-04-25 06:45 | 42.72881 | -75.70826 | 6832 ft | 113 kts | 319° |
| 2026-04-25 06:45 | 42.73478 | -75.71505 | 7045 ft | 112 kts | 319° |
| 2026-04-25 06:45 | 42.74075 | -75.72186 | 7239 ft | 113 kts | 319° |
| 2026-04-25 06:45 | 42.74669 | -75.72862 | 7429 ft | 112 kts | 319° |
| 2026-04-25 06:46 | 42.75266 | -75.73538 | 7630 ft | 112 kts | 318° |
| 2026-04-25 06:46 | 42.75867 | -75.74227 | 7805 ft | 114 kts | 319° |
| 2026-04-25 06:46 | 42.76465 | -75.74909 | 7974 ft | 110 kts | 318° |
| 2026-04-25 06:46 | 42.77077 | -75.75608 | 8009 ft | 120 kts | 319° |
| 2026-04-25 06:47 | 42.77747 | -75.76369 | 8016 ft | 130 kts | 319° |
| 2026-04-25 06:47 | 42.78464 | -75.77187 | 8015 ft | 135 kts | 319° |
| 2026-04-25 06:47 | 42.79193 | -75.78020 | 8015 ft | 138 kts | 319° |
| 2026-04-25 06:47 | 42.79929 | -75.78865 | 8005 ft | 141 kts | 319° |
| 2026-04-25 06:48 | 42.80688 | -75.79727 | 8013 ft | 143 kts | 319° |
| 2026-04-25 06:48 | 42.81455 | -75.80603 | 8012 ft | 144 kts | 319° |
| 2026-04-25 06:48 | 42.82223 | -75.81483 | 8010 ft | 146 kts | 319° |
| 2026-04-25 06:48 | 42.83007 | -75.82379 | 8010 ft | 148 kts | 319° |
| 2026-04-25 06:49 | 42.83797 | -75.83283 | 8010 ft | 149 kts | 319° |
| 2026-04-25 06:49 | 42.84594 | -75.84198 | 8010 ft | 150 kts | 319° |
| 2026-04-25 06:49 | 42.85394 | -75.85111 | 8010 ft | 151 kts | 319° |
| 2026-04-25 06:49 | 42.86199 | -75.86032 | 8010 ft | 151 kts | 319° |
| 2026-04-25 06:50 | 42.87015 | -75.86967 | 8010 ft | 152 kts | 319° |
| 2026-04-25 06:50 | 42.87813 | -75.87883 | 8013 ft | 152 kts | 319° |
| 2026-04-25 06:50 | 42.88630 | -75.88819 | 8010 ft | 151 kts | 319° |
| 2026-04-25 06:50 | 42.89425 | -75.89727 | 8011 ft | 151 kts | 319° |
| 2026-04-25 06:51 | 42.90228 | -75.90655 | 8010 ft | 152 kts | 319° |
| 2026-04-25 06:51 | 42.91040 | -75.91585 | 8010 ft | 153 kts | 319° |
| 2026-04-25 06:51 | 42.91853 | -75.92517 | 8008 ft | 152 kts | 319° |
| 2026-04-25 06:51 | 42.92662 | -75.93447 | 7998 ft | 152 kts | 319° |
| 2026-04-25 06:52 | 42.93469 | -75.94375 | 8000 ft | 152 kts | 319° |
| 2026-04-25 06:52 | 42.94276 | -75.95303 | 8000 ft | 152 kts | 319° |
| 2026-04-25 06:52 | 42.95084 | -75.96232 | 8001 ft | 152 kts | 319° |
| 2026-04-25 06:52 | 42.95905 | -75.97175 | 8001 ft | 152 kts | 319° |
| 2026-04-25 06:53 | 42.96708 | -75.98099 | 8008 ft | 153 kts | 319° |
| 2026-04-25 06:53 | 42.97533 | -75.99049 | 8005 ft | 153 kts | 319° |
| 2026-04-25 06:53 | 42.98347 | -75.99984 | 8003 ft | 153 kts | 319° |
| 2026-04-25 06:53 | 42.99158 | -76.00921 | 8005 ft | 152 kts | 319° |
| 2026-04-25 06:54 | 42.99968 | -76.01853 | 8005 ft | 153 kts | 319° |
| 2026-04-25 06:54 | 43.00782 | -76.02791 | 8006 ft | 153 kts | 319° |
| 2026-04-25 06:54 | 43.01594 | -76.03727 | 8005 ft | 153 kts | 319° |
| 2026-04-25 06:54 | 43.02406 | -76.04664 | 8005 ft | 153 kts | 319° |
| 2026-04-25 06:55 | 43.03222 | -76.05606 | 8004 ft | 154 kts | 319° |
| 2026-04-25 06:55 | 43.04040 | -76.06549 | 8005 ft | 153 kts | 319° |
| 2026-04-25 06:55 | 43.04852 | -76.07487 | 8005 ft | 153 kts | 319° |
| 2026-04-25 06:55 | 43.05664 | -76.08425 | 8007 ft | 153 kts | 319° |
| 2026-04-25 06:56 | 43.06475 | -76.09363 | 8005 ft | 153 kts | 318° |
| 2026-04-25 06:56 | 43.07288 | -76.10302 | 8005 ft | 153 kts | 319° |
| 2026-04-25 06:56 | 43.08101 | -76.11242 | 8004 ft | 153 kts | 319° |
| 2026-04-25 06:56 | 43.08912 | -76.12181 | 8002 ft | 153 kts | 319° |
| 2026-04-25 06:57 | 43.09722 | -76.13119 | 8004 ft | 152 kts | 319° |
| 2026-04-25 06:57 | 43.10646 | -76.13796 | 8003 ft | 155 kts | 346° |
| 2026-04-25 06:57 | 43.11731 | -76.13935 | 8005 ft | 156 kts | 349° |
| 2026-04-25 06:57 | 43.12807 | -76.14127 | 8006 ft | 156 kts | 347° |
| 2026-04-25 06:58 | 43.13877 | -76.14359 | 8006 ft | 156 kts | 346° |
| 2026-04-25 06:58 | 43.14948 | -76.14601 | 8001 ft | 157 kts | 346° |
| 2026-04-25 06:58 | 43.16025 | -76.14846 | 8001 ft | 157 kts | 346° |
| 2026-04-25 06:58 | 43.17105 | -76.15091 | 8001 ft | 158 kts | 346° |
| 2026-04-25 06:59 | 43.18189 | -76.15338 | 8001 ft | 158 kts | 346° |
| 2026-04-25 06:59 | 43.19273 | -76.15584 | 8007 ft | 158 kts | 347° |
| 2026-04-25 06:59 | 43.20356 | -76.15831 | 8007 ft | 158 kts | 347° |
| 2026-04-25 06:59 | 43.21440 | -76.16077 | 8007 ft | 158 kts | 347° |
| 2026-04-25 07:00 | 43.22523 | -76.16324 | 8004 ft | 158 kts | 347° |
| 2026-04-25 07:00 | 43.23603 | -76.16571 | 8005 ft | 158 kts | 347° |
| 2026-04-25 07:00 | 43.24690 | -76.16818 | 8004 ft | 158 kts | 346° |
| 2026-04-25 07:00 | 43.25773 | -76.17065 | 8004 ft | 158 kts | 346° |
| 2026-04-25 07:01 | 43.26857 | -76.17313 | 8008 ft | 158 kts | 347° |
| 2026-04-25 07:01 | 43.27943 | -76.17560 | 8007 ft | 158 kts | 347° |
| 2026-04-25 07:01 | 43.29031 | -76.17808 | 8007 ft | 158 kts | 347° |
| 2026-04-25 07:01 | 43.30118 | -76.18057 | 8001 ft | 158 kts | 347° |
| 2026-04-25 07:02 | 43.31205 | -76.18305 | 8001 ft | 158 kts | 347° |
| 2026-04-25 07:02 | 43.32295 | -76.18554 | 7979 ft | 159 kts | 346° |
| 2026-04-25 07:02 | 43.33384 | -76.18803 | 7984 ft | 159 kts | 347° |
| 2026-04-25 07:02 | 43.34473 | -76.19052 | 7984 ft | 159 kts | 347° |
| 2026-04-25 07:03 | 43.35559 | -76.19300 | 7983 ft | 159 kts | 347° |
| 2026-04-25 07:03 | 43.36649 | -76.19550 | 7983 ft | 158 kts | 347° |
| 2026-04-25 07:03 | 43.37741 | -76.19800 | 7984 ft | 158 kts | 347° |
| 2026-04-25 07:03 | 43.38828 | -76.20048 | 7991 ft | 158 kts | 346° |
| 2026-04-25 07:04 | 43.39920 | -76.20299 | 7983 ft | 159 kts | 347° |
| 2026-04-25 07:04 | 43.41014 | -76.20550 | 7983 ft | 159 kts | 347° |
| 2026-04-25 07:04 | 43.42105 | -76.20799 | 7979 ft | 159 kts | 347° |
| 2026-04-25 07:04 | 43.43198 | -76.21050 | 7982 ft | 159 kts | 347° |
| 2026-04-25 07:05 | 43.44294 | -76.21302 | 7981 ft | 159 kts | 347° |
| 2026-04-25 07:05 | 43.45387 | -76.21552 | 7982 ft | 159 kts | 347° |
| 2026-04-25 07:05 | 43.46480 | -76.21804 | 7981 ft | 159 kts | 347° |
| 2026-04-25 07:05 | 43.47563 | -76.22052 | 7984 ft | 160 kts | 347° |
| 2026-04-25 07:06 | 43.48675 | -76.22308 | 7970 ft | 161 kts | 347° |
| 2026-04-25 07:06 | 43.49801 | -76.22567 | 7821 ft | 168 kts | 347° |
| 2026-04-25 07:06 | 43.50955 | -76.22831 | 7654 ft | 172 kts | 347° |
| 2026-04-25 07:06 | 43.52142 | -76.23105 | 7485 ft | 174 kts | 348° |
| 2026-04-25 07:07 | 43.53340 | -76.23380 | 7313 ft | 175 kts | 347° |
| 2026-04-25 07:07 | 43.54544 | -76.23657 | 7148 ft | 175 kts | 348° |
| 2026-04-25 07:07 | 43.55740 | -76.23933 | 6979 ft | 174 kts | 348° |
| 2026-04-25 07:07 | 43.56934 | -76.24208 | 6808 ft | 174 kts | 348° |
| 2026-04-25 07:08 | 43.58124 | -76.24482 | 6638 ft | 173 kts | 348° |
| 2026-04-25 07:08 | 43.59315 | -76.24758 | 6472 ft | 174 kts | 349° |
| 2026-04-25 07:08 | 43.60520 | -76.25036 | 6297 ft | 176 kts | 349° |
| 2026-04-25 07:08 | 43.61730 | -76.25315 | 6116 ft | 177 kts | 349° |
| 2026-04-25 07:09 | 43.62946 | -76.25595 | 5938 ft | 177 kts | 350° |
| 2026-04-25 07:09 | 43.64166 | -76.25877 | 5758 ft | 178 kts | 350° |
| 2026-04-25 07:09 | 43.65389 | -76.26159 | 5579 ft | 178 kts | 351° |
| 2026-04-25 07:09 | 43.66600 | -76.26438 | 5399 ft | 175 kts | 351° |
| 2026-04-25 07:10 | 43.67799 | -76.26716 | 5217 ft | 174 kts | 352° |
| 2026-04-25 07:10 | 43.68992 | -76.26993 | 5039 ft | 174 kts | 352° |
| 2026-04-25 07:10 | 43.70182 | -76.27269 | 4855 ft | 173 kts | 353° |
| 2026-04-25 07:10 | 43.71373 | -76.27544 | 4686 ft | 173 kts | 352° |
| 2026-04-25 07:11 | 43.72562 | -76.27819 | 4501 ft | 174 kts | 353° |
| 2026-04-25 07:11 | 43.73757 | -76.28096 | 4318 ft | 175 kts | 353° |
| 2026-04-25 07:11 | 43.74960 | -76.28374 | 4135 ft | 176 kts | 353° |
| 2026-04-25 07:11 | 43.76171 | -76.28654 | 3955 ft | 176 kts | 353° |
| 2026-04-25 07:12 | 43.77380 | -76.28936 | 3774 ft | 176 kts | 353° |
| 2026-04-25 07:12 | 43.79812 | -76.29471 | 3459 ft | 174 kts | 360° |
| 2026-04-25 07:12 | 43.80984 | -76.29413 | 3426 ft | 165 kts | 10° |
| 2026-04-25 07:13 | 43.82094 | -76.29158 | 3334 ft | 162 kts | 17° |
| 2026-04-25 07:13 | 43.83158 | -76.28743 | 3310 ft | 156 kts | 22° |
| 2026-04-25 07:13 | 43.84174 | -76.28239 | 3237 ft | 154 kts | 27° |
| 2026-04-25 07:13 | 43.85107 | -76.27568 | 3213 ft | 149 kts | 39° |
| 2026-04-25 07:14 | 43.85674 | -76.27023 | 3147 ft | 150 kts | 40° |
| 2026-04-25 07:14 | 43.86412 | -76.26027 | 3086 ft | 147 kts | 54° |
| 2026-04-25 07:14 | 43.87067 | -76.24939 | 2995 ft | 146 kts | 55° |
| 2026-04-25 07:14 | 43.87708 | -76.23861 | 2885 ft | 145 kts | 56° |
| 2026-04-25 07:15 | 43.88330 | -76.22756 | 2750 ft | 145 kts | 58° |
| 2026-04-25 07:15 | 43.88876 | -76.21604 | 2643 ft | 142 kts | 63° |
| 2026-04-25 07:15 | 43.89421 | -76.20449 | 2512 ft | 143 kts | 59° |
| 2026-04-25 07:15 | 43.90015 | -76.19385 | 2504 ft | 136 kts | 58° |
| 2026-04-25 07:16 | 43.90578 | -76.18362 | 2464 ft | 132 kts | 58° |
| 2026-04-25 07:16 | 43.91135 | -76.17355 | 2429 ft | 130 kts | 59° |
| 2026-04-25 07:16 | 43.91665 | -76.16368 | 2432 ft | 126 kts | 60° |
| 2026-04-25 07:16 | 43.92178 | -76.15405 | 2397 ft | 122 kts | 60° |
| 2026-04-25 07:17 | 43.92673 | -76.14484 | 2343 ft | 115 kts | 61° |
| 2026-04-25 07:17 | 43.93124 | -76.13644 | 2281 ft | 104 kts | 61° |
| 2026-04-25 07:17 | 43.93560 | -76.12859 | 2140 ft | 104 kts | 59° |
| 2026-04-25 07:17 | 43.94003 | -76.12071 | 2007 ft | 103 kts | 60° |
| 2026-04-25 07:18 | 43.94414 | -76.11268 | 1842 ft | 102 kts | 63° |
| 2026-04-25 07:18 | 43.94814 | -76.10448 | 1693 ft | 103 kts | 62° |
| 2026-04-25 07:18 | 43.95226 | -76.09629 | 1552 ft | 103 kts | 60° |
| 2026-04-25 07:18 | 43.95655 | -76.08847 | 1416 ft | 102 kts | 58° |
| 2026-04-25 07:19 | 43.96082 | -76.08052 | 1274 ft | 102 kts | 56° |
| 2026-04-25 07:19 | 43.96507 | -76.07245 | 1130 ft | 104 kts | 54° |
| 2026-04-25 07:19 | 43.96911 | -76.06501 | 981 ft | 90 kts | 56° |
| 2026-04-25 07:19 | 43.97267 | -76.05840 | 813 ft | 81 kts | 54° |
| 2026-04-25 07:20 | 43.97594 | -76.05223 | 692 ft | 80 kts | 56° |
| 2026-04-25 07:20 | 43.97919 | -76.04621 | 616 ft | 76 kts | 55° |
| 2026-04-25 07:20 | 43.98240 | -76.04025 | 510 ft | 78 kts | 57° |
| 2026-04-25 07:20 | 43.98552 | -76.03433 | 416 ft | 74 kts | 59° |
| 2026-04-25 07:21 | 43.98844 | -76.02894 | 335 ft | 66 kts | 56° |
| 2026-04-25 07:21 | 43.99089 | -76.02434 | 320 ft | 51 kts | 57° |
| 2026-04-25 07:21 | 43.99246 | -76.02135 | 318 ft | 24 kts | 51° |
| 2026-04-25 07:21 | 43.99299 | -76.02129 | 319 ft | 6 kts | 308° |
| 2026-04-25 07:22 | 43.99303 | -76.02178 | 320 ft | 6 kts | 278° |
| 2026-04-25 07:22 | 43.99314 | -76.02263 | 320 ft | 12 kts | 270° |
| 2026-04-25 07:22 | 43.99315 | -76.02408 | 319 ft | 14 kts | 271° |
| 2026-04-25 07:22 | 43.99348 | -76.02484 | 319 ft | 7 kts | 359° |
| 2026-04-25 07:23 | 43.99360 | -76.02484 | 319 ft | 0 kts | 356° |